sensor_id;sensor_type;location;lat;lon;timestamp;temperature;humidity
9157;DHT22;4613;48.392;9.998;2023-03-23T00:01:56;11.60;97.30
9157;DHT22;4613;48.392;9.998;2023-03-23T00:04:45;11.80;97.20
9157;DHT22;4613;48.392;9.998;2023-03-23T00:07:38;11.50;97.30
9157;DHT22;4613;48.392;9.998;2023-03-23T00:10:27;11.30;97.70
9157;DHT22;4613;48.392;9.998;2023-03-23T00:13:16;11.60;97.90
9157;DHT22;4613;48.392;9.998;2023-03-23T00:16:09;11.90;97.40
9157;DHT22;4613;48.392;9.998;2023-03-23T00:19:11;11.70;97.40
9157;DHT22;4613;48.392;9.998;2023-03-23T00:22:03;11.20;98.00
9157;DHT22;4613;48.392;9.998;2023-03-23T00:24:53;11.60;97.90
9157;DHT22;4613;48.392;9.998;2023-03-23T00:27:42;11.30;97.70
9157;DHT22;4613;48.392;9.998;2023-03-23T00:30:34;11.10;97.80
9157;DHT22;4613;48.392;9.998;2023-03-23T00:33:26;11.10;98.50
9157;DHT22;4613;48.392;9.998;2023-03-23T00:36:15;10.90;98.40
9157;DHT22;4613;48.392;9.998;2023-03-23T00:39:04;10.90;98.80
9157;DHT22;4613;48.392;9.998;2023-03-23T00:41:54;11.10;98.60
9157;DHT22;4613;48.392;9.998;2023-03-23T00:44:49;10.90;98.60
9157;DHT22;4613;48.392;9.998;2023-03-23T00:47:40;11.20;98.60
9157;DHT22;4613;48.392;9.998;2023-03-23T00:50:35;10.70;98.80
9157;DHT22;4613;48.392;9.998;2023-03-23T00:53:25;11.00;98.70
9157;DHT22;4613;48.392;9.998;2023-03-23T00:56:17;11.20;98.50
9157;DHT22;4613;48.392;9.998;2023-03-23T00:59:07;11.40;98.40
9157;DHT22;4613;48.392;9.998;2023-03-23T01:01:57;11.30;98.20
9157;DHT22;4613;48.392;9.998;2023-03-23T01:04:45;11.40;98.20
9157;DHT22;4613;48.392;9.998;2023-03-23T01:07:35;11.30;98.10
9157;DHT22;4613;48.392;9.998;2023-03-23T01:10:24;11.20;98.60
9157;DHT22;4613;48.392;9.998;2023-03-23T01:13:15;11.00;98.60
9157;DHT22;4613;48.392;9.998;2023-03-23T01:16:05;11.10;98.50
9157;DHT22;4613;48.392;9.998;2023-03-23T01:18:55;10.10;99.20
9157;DHT22;4613;48.392;9.998;2023-03-23T01:21:45;10.20;99.50
9157;DHT22;4613;48.392;9.998;2023-03-23T01:24:34;10.70;99.40
9157;DHT22;4613;48.392;9.998;2023-03-23T01:27:23;11.20;98.90
9157;DHT22;4613;48.392;9.998;2023-03-23T01:30:13;11.30;98.80
9157;DHT22;4613;48.392;9.998;2023-03-23T01:33:03;11.20;99.00
9157;DHT22;4613;48.392;9.998;2023-03-23T01:35:52;11.40;98.80
9157;DHT22;4613;48.392;9.998;2023-03-23T01:38:46;11.30;98.60
9157;DHT22;4613;48.392;9.998;2023-03-23T01:41:36;11.10;98.70
9157;DHT22;4613;48.392;9.998;2023-03-23T01:47:29;11.50;98.60
9157;DHT22;4613;48.392;9.998;2023-03-23T01:50:25;11.40;98.40
9157;DHT22;4613;48.392;9.998;2023-03-23T01:53:17;11.50;98.30
9157;DHT22;4613;48.392;9.998;2023-03-23T01:56:09;11.40;98.20
9157;DHT22;4613;48.392;9.998;2023-03-23T01:59:01;11.40;98.80
9157;DHT22;4613;48.392;9.998;2023-03-23T02:01:51;11.60;98.50
9157;DHT22;4613;48.392;9.998;2023-03-23T02:04:42;11.50;98.30
9157;DHT22;4613;48.392;9.998;2023-03-23T02:07:31;11.50;98.20
9157;DHT22;4613;48.392;9.998;2023-03-23T02:10:22;11.50;98.20
9157;DHT22;4613;48.392;9.998;2023-03-23T02:13:12;11.70;98.10
9157;DHT22;4613;48.392;9.998;2023-03-23T02:16:26;11.80;97.90
9157;DHT22;4613;48.392;9.998;2023-03-23T02:25:55;11.90;97.70
9157;DHT22;4613;48.392;9.998;2023-03-23T02:29:12;11.90;97.80
9157;DHT22;4613;48.392;9.998;2023-03-23T02:33:28;11.80;97.90
9157;DHT22;4613;48.392;9.998;2023-03-23T02:36:50;11.80;98.00
9157;DHT22;4613;48.392;9.998;2023-03-23T02:39:21;11.70;97.90
9157;DHT22;4613;48.392;9.998;2023-03-23T02:42:15;11.70;97.90
9157;DHT22;4613;48.392;9.998;2023-03-23T02:45:09;11.60;98.20
9157;DHT22;4613;48.392;9.998;2023-03-23T02:48:01;11.40;98.30
9157;DHT22;4613;48.392;9.998;2023-03-23T02:50:53;11.20;98.70
9157;DHT22;4613;48.392;9.998;2023-03-23T02:53:43;11.60;98.50
9157;DHT22;4613;48.392;9.998;2023-03-23T02:56:34;11.20;98.60
9157;DHT22;4613;48.392;9.998;2023-03-23T02:59:25;11.40;98.70
9157;DHT22;4613;48.392;9.998;2023-03-23T03:02:23;11.70;98.60
9157;DHT22;4613;48.392;9.998;2023-03-23T03:11:13;11.40;98.70
9157;DHT22;4613;48.392;9.998;2023-03-23T03:14:11;11.00;99.00
9157;DHT22;4613;48.392;9.998;2023-03-23T03:20:06;11.20;99.30
9157;DHT22;4613;48.392;9.998;2023-03-23T03:23:02;11.20;99.30
9157;DHT22;4613;48.392;9.998;2023-03-23T03:25:55;11.30;99.30
9157;DHT22;4613;48.392;9.998;2023-03-23T03:28:55;11.50;99.20
9157;DHT22;4613;48.392;9.998;2023-03-23T03:31:46;11.20;99.50
9157;DHT22;4613;48.392;9.998;2023-03-23T03:34:36;11.20;99.30
9157;DHT22;4613;48.392;9.998;2023-03-23T03:37:31;10.40;99.90
9157;DHT22;4613;48.392;9.998;2023-03-23T03:40:22;10.60;99.90
9157;DHT22;4613;48.392;9.998;2023-03-23T03:43:13;10.40;99.90
9157;DHT22;4613;48.392;9.998;2023-03-23T03:46:02;10.10;99.90
9157;DHT22;4613;48.392;9.998;2023-03-23T03:48:53;10.10;99.90
9157;DHT22;4613;48.392;9.998;2023-03-23T03:51:44;10.20;99.90
9157;DHT22;4613;48.392;9.998;2023-03-23T03:54:40;9.90;99.90
9157;DHT22;4613;48.392;9.998;2023-03-23T03:57:30;9.90;99.90
9157;DHT22;4613;48.392;9.998;2023-03-23T04:00:55;10.00;99.90
9157;DHT22;4613;48.392;9.998;2023-03-23T04:03:49;10.10;99.90
9157;DHT22;4613;48.392;9.998;2023-03-23T04:06:50;10.30;99.90
9157;DHT22;4613;48.392;9.998;2023-03-23T04:09:40;10.50;99.90
9157;DHT22;4613;48.392;9.998;2023-03-23T04:12:29;10.20;99.90
9157;DHT22;4613;48.392;9.998;2023-03-23T04:15:19;10.40;99.90
9157;DHT22;4613;48.392;9.998;2023-03-23T04:18:10;10.40;99.90
9157;DHT22;4613;48.392;9.998;2023-03-23T04:21:02;10.30;99.90
9157;DHT22;4613;48.392;9.998;2023-03-23T04:23:52;10.50;99.90
9157;DHT22;4613;48.392;9.998;2023-03-23T04:26:43;10.40;99.90
9157;DHT22;4613;48.392;9.998;2023-03-23T04:29:43;10.60;99.90
9157;DHT22;4613;48.392;9.998;2023-03-23T04:33:07;10.40;99.90
9157;DHT22;4613;48.392;9.998;2023-03-23T04:35:59;10.20;99.90
9157;DHT22;4613;48.392;9.998;2023-03-23T04:38:59;10.40;99.90
9157;DHT22;4613;48.392;9.998;2023-03-23T04:41:49;10.60;99.90
9157;DHT22;4613;48.392;9.998;2023-03-23T04:44:46;10.60;99.90
9157;DHT22;4613;48.392;9.998;2023-03-23T04:47:43;10.40;99.90
9157;DHT22;4613;48.392;9.998;2023-03-23T04:50:44;10.50;99.90
9157;DHT22;4613;48.392;9.998;2023-03-23T04:53:45;10.60;99.90
9157;DHT22;4613;48.392;9.998;2023-03-23T04:56:35;10.80;99.90
9157;DHT22;4613;48.392;9.998;2023-03-23T04:59:31;10.80;99.90
9157;DHT22;4613;48.392;9.998;2023-03-23T05:02:47;11.00;99.90
9157;DHT22;4613;48.392;9.998;2023-03-23T05:05:40;10.90;99.90
9157;DHT22;4613;48.392;9.998;2023-03-23T05:08:30;11.00;99.90
9157;DHT22;4613;48.392;9.998;2023-03-23T05:11:24;11.00;99.90
9157;DHT22;4613;48.392;9.998;2023-03-23T05:14:15;11.10;99.90
9157;DHT22;4613;48.392;9.998;2023-03-23T05:17:08;11.20;99.90
9157;DHT22;4613;48.392;9.998;2023-03-23T05:19:59;11.10;99.90
9157;DHT22;4613;48.392;9.998;2023-03-23T05:22:58;11.20;99.90
9157;DHT22;4613;48.392;9.998;2023-03-23T05:25:55;11.10;99.90
9157;DHT22;4613;48.392;9.998;2023-03-23T05:28:44;10.80;99.90
9157;DHT22;4613;48.392;9.998;2023-03-23T05:31:40;11.00;99.90
9157;DHT22;4613;48.392;9.998;2023-03-23T05:34:31;11.00;99.90
9157;DHT22;4613;48.392;9.998;2023-03-23T05:37:24;11.00;99.90
9157;DHT22;4613;48.392;9.998;2023-03-23T05:40:21;11.00;99.90
9157;DHT22;4613;48.392;9.998;2023-03-23T05:43:18;10.90;99.90
9157;DHT22;4613;48.392;9.998;2023-03-23T05:46:22;10.90;99.90
9157;DHT22;4613;48.392;9.998;2023-03-23T05:49:14;11.10;99.90
9157;DHT22;4613;48.392;9.998;2023-03-23T05:52:05;11.10;99.90
9157;DHT22;4613;48.392;9.998;2023-03-23T05:54:55;11.20;99.90
9157;DHT22;4613;48.392;9.998;2023-03-23T05:57:46;11.00;99.90
9157;DHT22;4613;48.392;9.998;2023-03-23T06:00:49;11.10;99.90
9157;DHT22;4613;48.392;9.998;2023-03-23T06:03:44;11.00;99.90
9157;DHT22;4613;48.392;9.998;2023-03-23T06:06:46;11.10;99.90
9157;DHT22;4613;48.392;9.998;2023-03-23T06:09:37;11.30;99.90
9157;DHT22;4613;48.392;9.998;2023-03-23T06:12:27;11.40;99.90
9157;DHT22;4613;48.392;9.998;2023-03-23T06:15:35;11.30;99.90
9157;DHT22;4613;48.392;9.998;2023-03-23T06:18:25;11.20;99.90
9157;DHT22;4613;48.392;9.998;2023-03-23T06:21:31;11.20;99.90
9157;DHT22;4613;48.392;9.998;2023-03-23T06:24:45;11.00;99.90
9157;DHT22;4613;48.392;9.998;2023-03-23T06:27:38;11.10;99.90
9157;DHT22;4613;48.392;9.998;2023-03-23T06:30:28;11.10;99.90
9157;DHT22;4613;48.392;9.998;2023-03-23T06:33:19;11.00;99.90
9157;DHT22;4613;48.392;9.998;2023-03-23T06:36:29;11.10;99.90
9157;DHT22;4613;48.392;9.998;2023-03-23T06:39:33;11.10;99.90
9157;DHT22;4613;48.392;9.998;2023-03-23T06:42:43;11.10;99.90
9157;DHT22;4613;48.392;9.998;2023-03-23T06:45:57;10.90;99.90
9157;DHT22;4613;48.392;9.998;2023-03-23T06:49:02;10.90;99.90
9157;DHT22;4613;48.392;9.998;2023-03-23T06:52:01;11.00;99.90
9157;DHT22;4613;48.392;9.998;2023-03-23T06:54:53;11.10;99.90
9157;DHT22;4613;48.392;9.998;2023-03-23T06:57:49;11.10;99.90
9157;DHT22;4613;48.392;9.998;2023-03-23T07:00:40;11.40;99.90
9157;DHT22;4613;48.392;9.998;2023-03-23T07:03:31;11.20;99.90
9157;DHT22;4613;48.392;9.998;2023-03-23T07:06:23;11.30;99.90
9157;DHT22;4613;48.392;9.998;2023-03-23T07:09:18;11.50;99.90
9157;DHT22;4613;48.392;9.998;2023-03-23T07:12:08;11.80;99.90
9157;DHT22;4613;48.392;9.998;2023-03-23T07:15:04;11.70;99.90
9157;DHT22;4613;48.392;9.998;2023-03-23T07:17:55;11.70;99.90
9157;DHT22;4613;48.392;9.998;2023-03-23T07:20:54;11.70;99.90
9157;DHT22;4613;48.392;9.998;2023-03-23T07:23:47;11.70;99.90
9157;DHT22;4613;48.392;9.998;2023-03-23T07:26:43;11.80;99.90
9157;DHT22;4613;48.392;9.998;2023-03-23T07:29:33;11.70;99.90
9157;DHT22;4613;48.392;9.998;2023-03-23T07:32:31;11.80;99.90
9157;DHT22;4613;48.392;9.998;2023-03-23T07:35:21;12.00;99.90
9157;DHT22;4613;48.392;9.998;2023-03-23T07:38:26;12.10;99.90
9157;DHT22;4613;48.392;9.998;2023-03-23T07:41:16;12.10;99.90
9157;DHT22;4613;48.392;9.998;2023-03-23T07:44:07;12.40;99.90
9157;DHT22;4613;48.392;9.998;2023-03-23T07:46:58;12.40;99.90
9157;DHT22;4613;48.392;9.998;2023-03-23T07:49:54;12.40;99.90
9157;DHT22;4613;48.392;9.998;2023-03-23T07:52:54;12.30;99.90
9157;DHT22;4613;48.392;9.998;2023-03-23T07:55:44;12.40;99.90
9157;DHT22;4613;48.392;9.998;2023-03-23T07:58:52;12.60;99.90
9157;DHT22;4613;48.392;9.998;2023-03-23T08:01:42;12.70;99.90
9157;DHT22;4613;48.392;9.998;2023-03-23T08:04:50;12.80;99.90
9157;DHT22;4613;48.392;9.998;2023-03-23T08:08:09;12.90;99.90
9157;DHT22;4613;48.392;9.998;2023-03-23T08:11:30;12.80;99.90
9157;DHT22;4613;48.392;9.998;2023-03-23T08:14:40;12.90;99.90
9157;DHT22;4613;48.392;9.998;2023-03-23T08:17:55;12.90;99.90
9157;DHT22;4613;48.392;9.998;2023-03-23T08:21:14;13.00;99.90
9157;DHT22;4613;48.392;9.998;2023-03-23T08:24:19;12.90;99.90
9157;DHT22;4613;48.392;9.998;2023-03-23T08:27:15;13.10;99.90
9157;DHT22;4613;48.392;9.998;2023-03-23T08:30:18;13.10;99.90
9157;DHT22;4613;48.392;9.998;2023-03-23T08:33:37;13.00;99.90
9157;DHT22;4613;48.392;9.998;2023-03-23T08:36:59;13.20;99.90
9157;DHT22;4613;48.392;9.998;2023-03-23T08:40:13;13.10;99.90
9157;DHT22;4613;48.392;9.998;2023-03-23T08:43:41;13.20;99.90
9157;DHT22;4613;48.392;9.998;2023-03-23T08:46:59;13.40;99.90
9157;DHT22;4613;48.392;9.998;2023-03-23T08:50:05;13.40;99.90
9157;DHT22;4613;48.392;9.998;2023-03-23T08:53:21;13.30;99.90
9157;DHT22;4613;48.392;9.998;2023-03-23T08:56:30;13.40;99.90
9157;DHT22;4613;48.392;9.998;2023-03-23T08:59:34;13.40;99.90
9157;DHT22;4613;48.392;9.998;2023-03-23T09:02:28;13.20;99.90
9157;DHT22;4613;48.392;9.998;2023-03-23T09:05:31;13.40;99.90
9157;DHT22;4613;48.392;9.998;2023-03-23T09:08:32;13.20;99.90
9157;DHT22;4613;48.392;9.998;2023-03-23T09:11:22;13.30;99.90
9157;DHT22;4613;48.392;9.998;2023-03-23T09:14:20;13.40;99.90
9157;DHT22;4613;48.392;9.998;2023-03-23T09:17:10;13.50;99.90
9157;DHT22;4613;48.392;9.998;2023-03-23T09:20:00;13.70;99.90
9157;DHT22;4613;48.392;9.998;2023-03-23T09:22:51;13.70;99.90
9157;DHT22;4613;48.392;9.998;2023-03-23T09:25:41;13.70;99.90
9157;DHT22;4613;48.392;9.998;2023-03-23T09:28:30;13.90;99.90
9157;DHT22;4613;48.392;9.998;2023-03-23T09:31:20;13.80;99.90
9157;DHT22;4613;48.392;9.998;2023-03-23T09:34:09;13.80;99.90
9157;DHT22;4613;48.392;9.998;2023-03-23T09:36:59;13.80;99.90
9157;DHT22;4613;48.392;9.998;2023-03-23T09:39:48;14.00;99.90
9157;DHT22;4613;48.392;9.998;2023-03-23T09:48:55;13.80;99.90
9157;DHT22;4613;48.392;9.998;2023-03-23T09:52:03;13.90;99.90
9157;DHT22;4613;48.392;9.998;2023-03-23T09:54:55;13.90;99.90
9157;DHT22;4613;48.392;9.998;2023-03-23T09:57:59;14.10;99.90
9157;DHT22;4613;48.392;9.998;2023-03-23T10:04:35;14.20;99.90
9157;DHT22;4613;48.392;9.998;2023-03-23T10:07:27;14.20;99.90
9157;DHT22;4613;48.392;9.998;2023-03-23T10:10:18;14.20;99.90
9157;DHT22;4613;48.392;9.998;2023-03-23T10:13:23;14.40;99.90
9157;DHT22;4613;48.392;9.998;2023-03-23T10:16:21;14.50;99.90
9157;DHT22;4613;48.392;9.998;2023-03-23T10:19:15;14.50;99.90
9157;DHT22;4613;48.392;9.998;2023-03-23T10:22:10;14.60;99.90
9157;DHT22;4613;48.392;9.998;2023-03-23T10:28:35;14.70;99.80
9157;DHT22;4613;48.392;9.998;2023-03-23T10:31:37;14.70;99.60
9157;DHT22;4613;48.392;9.998;2023-03-23T10:34:28;15.00;99.50
9157;DHT22;4613;48.392;9.998;2023-03-23T10:37:23;15.30;99.30
9157;DHT22;4613;48.392;9.998;2023-03-23T10:40:20;15.60;99.00
9157;DHT22;4613;48.392;9.998;2023-03-23T10:43:12;15.90;99.20
9157;DHT22;4613;48.392;9.998;2023-03-23T10:49:48;16.20;98.20
9157;DHT22;4613;48.392;9.998;2023-03-23T10:55:41;16.20;97.50
9157;DHT22;4613;48.392;9.998;2023-03-23T10:58:33;16.00;97.80
9157;DHT22;4613;48.392;9.998;2023-03-23T11:01:33;16.00;97.80
9157;DHT22;4613;48.392;9.998;2023-03-23T11:04:24;16.00;98.20
9157;DHT22;4613;48.392;9.998;2023-03-23T11:07:20;15.90;98.20
9157;DHT22;4613;48.392;9.998;2023-03-23T11:10:24;16.00;98.40
9157;DHT22;4613;48.392;9.998;2023-03-23T11:13:17;16.20;98.40
9157;DHT22;4613;48.392;9.998;2023-03-23T11:16:08;16.40;98.20
9157;DHT22;4613;48.392;9.998;2023-03-23T11:18:59;16.40;97.70
9157;DHT22;4613;48.392;9.998;2023-03-23T11:21:52;16.50;97.80
9157;DHT22;4613;48.392;9.998;2023-03-23T11:24:46;16.50;97.70
9157;DHT22;4613;48.392;9.998;2023-03-23T11:27:38;16.40;97.60
9157;DHT22;4613;48.392;9.998;2023-03-23T11:30:30;16.30;97.60
9157;DHT22;4613;48.392;9.998;2023-03-23T11:33:20;16.40;97.60
9157;DHT22;4613;48.392;9.998;2023-03-23T11:36:12;16.30;97.60
9157;DHT22;4613;48.392;9.998;2023-03-23T11:39:03;16.30;97.80
9157;DHT22;4613;48.392;9.998;2023-03-23T11:41:57;16.10;97.80
9157;DHT22;4613;48.392;9.998;2023-03-23T11:44:47;16.10;98.00
9157;DHT22;4613;48.392;9.998;2023-03-23T11:47:41;16.20;98.20
9157;DHT22;4613;48.392;9.998;2023-03-23T11:50:52;16.30;98.50
9157;DHT22;4613;48.392;9.998;2023-03-23T11:56:57;16.20;97.50
9157;DHT22;4613;48.392;9.998;2023-03-23T11:59:47;16.20;97.80
9157;DHT22;4613;48.392;9.998;2023-03-23T12:06:12;16.20;97.50
9157;DHT22;4613;48.392;9.998;2023-03-23T12:12:07;16.30;97.60
9157;DHT22;4613;48.392;9.998;2023-03-23T12:18:59;16.40;97.50
9157;DHT22;4613;48.392;9.998;2023-03-23T12:31:23;16.60;97.90
9157;DHT22;4613;48.392;9.998;2023-03-23T12:34:40;16.60;98.00
9157;DHT22;4613;48.392;9.998;2023-03-23T12:37:42;16.50;98.40
9157;DHT22;4613;48.392;9.998;2023-03-23T12:40:53;16.70;98.40
9157;DHT22;4613;48.392;9.998;2023-03-23T12:43:53;16.70;98.10
9157;DHT22;4613;48.392;9.998;2023-03-23T12:49:54;17.00;98.20
9157;DHT22;4613;48.392;9.998;2023-03-23T12:53:11;16.90;97.00
9157;DHT22;4613;48.392;9.998;2023-03-23T12:56:18;17.00;96.80
9157;DHT22;4613;48.392;9.998;2023-03-23T13:02:58;16.90;96.20
9157;DHT22;4613;48.392;9.998;2023-03-23T13:05:57;17.00;96.30
9157;DHT22;4613;48.392;9.998;2023-03-23T13:08:55;17.00;96.30
9157;DHT22;4613;48.392;9.998;2023-03-23T13:11:47;17.00;96.10
9157;DHT22;4613;48.392;9.998;2023-03-23T13:23:59;17.00;96.30
9157;DHT22;4613;48.392;9.998;2023-03-23T13:26:51;17.10;96.70
9157;DHT22;4613;48.392;9.998;2023-03-23T13:29:45;16.90;96.70
9157;DHT22;4613;48.392;9.998;2023-03-23T13:32:39;16.80;96.80
9157;DHT22;4613;48.392;9.998;2023-03-23T13:35:35;16.80;96.60
9157;DHT22;4613;48.392;9.998;2023-03-23T13:38:28;16.70;96.60
9157;DHT22;4613;48.392;9.998;2023-03-23T13:41:25;16.70;96.60
9157;DHT22;4613;48.392;9.998;2023-03-23T13:44:23;16.60;96.80
9157;DHT22;4613;48.392;9.998;2023-03-23T13:53:14;16.40;96.90
9157;DHT22;4613;48.392;9.998;2023-03-23T13:56:36;16.50;97.20
9157;DHT22;4613;48.392;9.998;2023-03-23T14:02:40;16.30;97.20
9157;DHT22;4613;48.392;9.998;2023-03-23T14:06:12;16.40;97.50
9157;DHT22;4613;48.392;9.998;2023-03-23T14:12:21;16.40;97.70
9157;DHT22;4613;48.392;9.998;2023-03-23T14:15:13;16.40;97.80
9157;DHT22;4613;48.392;9.998;2023-03-23T14:18:04;16.50;97.90
9157;DHT22;4613;48.392;9.998;2023-03-23T14:20:55;16.50;98.00
9157;DHT22;4613;48.392;9.998;2023-03-23T14:23:46;16.50;97.40
9157;DHT22;4613;48.392;9.998;2023-03-23T14:26:35;16.60;97.50
9157;DHT22;4613;48.392;9.998;2023-03-23T14:29:25;16.60;97.00
9157;DHT22;4613;48.392;9.998;2023-03-23T14:32:19;16.60;97.10
9157;DHT22;4613;48.392;9.998;2023-03-23T14:35:35;16.70;96.90
9157;DHT22;4613;48.392;9.998;2023-03-23T14:38:26;16.70;96.80
9157;DHT22;4613;48.392;9.998;2023-03-23T14:41:20;16.80;96.60
9157;DHT22;4613;48.392;9.998;2023-03-23T14:44:16;16.80;96.80
9157;DHT22;4613;48.392;9.998;2023-03-23T14:47:13;16.80;96.80
9157;DHT22;4613;48.392;9.998;2023-03-23T14:50:18;16.80;96.80
9157;DHT22;4613;48.392;9.998;2023-03-23T14:56:21;16.70;96.60
9157;DHT22;4613;48.392;9.998;2023-03-23T14:59:12;16.60;96.70
9157;DHT22;4613;48.392;9.998;2023-03-23T15:02:03;16.50;96.90
9157;DHT22;4613;48.392;9.998;2023-03-23T15:04:57;16.50;97.00
9157;DHT22;4613;48.392;9.998;2023-03-23T15:07:51;16.40;97.10
9157;DHT22;4613;48.392;9.998;2023-03-23T15:10:41;16.40;97.20
9157;DHT22;4613;48.392;9.998;2023-03-23T15:13:32;16.40;97.20
9157;DHT22;4613;48.392;9.998;2023-03-23T15:16:28;16.30;97.20
9157;DHT22;4613;48.392;9.998;2023-03-23T15:19:28;16.30;97.20
9157;DHT22;4613;48.392;9.998;2023-03-23T15:22:29;16.30;97.20
9157;DHT22;4613;48.392;9.998;2023-03-23T15:25:38;16.20;97.20
9157;DHT22;4613;48.392;9.998;2023-03-23T15:28:32;16.20;97.30
9157;DHT22;4613;48.392;9.998;2023-03-23T15:31:23;16.20;97.30
9157;DHT22;4613;48.392;9.998;2023-03-23T15:34:24;16.20;97.30
9157;DHT22;4613;48.392;9.998;2023-03-23T15:37:27;16.20;97.30
9157;DHT22;4613;48.392;9.998;2023-03-23T15:40:23;16.20;97.40
9157;DHT22;4613;48.392;9.998;2023-03-23T15:43:21;16.00;97.10
9157;DHT22;4613;48.392;9.998;2023-03-23T15:49:08;16.00;97.30
9157;DHT22;4613;48.392;9.998;2023-03-23T15:51:59;16.00;97.40
9157;DHT22;4613;48.392;9.998;2023-03-23T15:54:48;15.90;97.60
9157;DHT22;4613;48.392;9.998;2023-03-23T15:57:37;15.80;97.60
9157;DHT22;4613;48.392;9.998;2023-03-23T16:00:27;15.90;97.80
9157;DHT22;4613;48.392;9.998;2023-03-23T16:03:22;15.90;98.10
9157;DHT22;4613;48.392;9.998;2023-03-23T16:06:14;15.90;98.00
9157;DHT22;4613;48.392;9.998;2023-03-23T16:09:06;15.80;97.80
9157;DHT22;4613;48.392;9.998;2023-03-23T16:11:55;15.80;97.80
9157;DHT22;4613;48.392;9.998;2023-03-23T16:14:44;15.80;97.80
9157;DHT22;4613;48.392;9.998;2023-03-23T16:17:34;15.80;97.90
9157;DHT22;4613;48.392;9.998;2023-03-23T16:20:23;15.80;98.00
9157;DHT22;4613;48.392;9.998;2023-03-23T16:23:13;15.80;98.10
9157;DHT22;4613;48.392;9.998;2023-03-23T16:26:03;15.80;98.10
9157;DHT22;4613;48.392;9.998;2023-03-23T16:28:53;15.70;98.30
9157;DHT22;4613;48.392;9.998;2023-03-23T16:31:42;15.70;98.70
9157;DHT22;4613;48.392;9.998;2023-03-23T16:34:32;15.70;98.90
9157;DHT22;4613;48.392;9.998;2023-03-23T16:37:23;15.70;99.20
9157;DHT22;4613;48.392;9.998;2023-03-23T16:40:13;15.70;99.20
9157;DHT22;4613;48.392;9.998;2023-03-23T16:43:03;15.70;99.80
9157;DHT22;4613;48.392;9.998;2023-03-23T16:45:55;15.40;99.70
9157;DHT22;4613;48.392;9.998;2023-03-23T16:48:45;15.40;99.90
9157;DHT22;4613;48.392;9.998;2023-03-23T16:51:34;15.40;99.90
9157;DHT22;4613;48.392;9.998;2023-03-23T16:54:23;15.30;99.90
9157;DHT22;4613;48.392;9.998;2023-03-23T16:57:12;15.30;99.90
9157;DHT22;4613;48.392;9.998;2023-03-23T17:00:05;15.30;99.90
9157;DHT22;4613;48.392;9.998;2023-03-23T17:02:56;15.40;99.90
9157;DHT22;4613;48.392;9.998;2023-03-23T17:05:48;15.40;99.90
9157;DHT22;4613;48.392;9.998;2023-03-23T17:08:37;15.30;99.90
9157;DHT22;4613;48.392;9.998;2023-03-23T17:11:30;15.30;99.90
9157;DHT22;4613;48.392;9.998;2023-03-23T17:14:20;15.30;99.90
9157;DHT22;4613;48.392;9.998;2023-03-23T17:17:10;15.30;99.90
9157;DHT22;4613;48.392;9.998;2023-03-23T17:20:00;15.10;99.90
9157;DHT22;4613;48.392;9.998;2023-03-23T17:22:50;15.20;99.90
9157;DHT22;4613;48.392;9.998;2023-03-23T17:25:39;15.20;99.90
9157;DHT22;4613;48.392;9.998;2023-03-23T17:28:29;15.20;99.90
9157;DHT22;4613;48.392;9.998;2023-03-23T17:31:18;15.10;99.90
9157;DHT22;4613;48.392;9.998;2023-03-23T17:34:07;15.00;99.90
9157;DHT22;4613;48.392;9.998;2023-03-23T17:36:56;15.00;99.90
9157;DHT22;4613;48.392;9.998;2023-03-23T17:39:46;15.10;99.90
9157;DHT22;4613;48.392;9.998;2023-03-23T17:42:36;15.10;99.90
9157;DHT22;4613;48.392;9.998;2023-03-23T17:45:26;15.00;99.90
9157;DHT22;4613;48.392;9.998;2023-03-23T17:48:16;15.00;99.90
9157;DHT22;4613;48.392;9.998;2023-03-23T17:51:05;14.90;99.90
9157;DHT22;4613;48.392;9.998;2023-03-23T17:53:54;15.00;99.90
9157;DHT22;4613;48.392;9.998;2023-03-23T17:56:44;14.90;99.90
9157;DHT22;4613;48.392;9.998;2023-03-23T17:59:33;14.90;99.90
9157;DHT22;4613;48.392;9.998;2023-03-23T18:02:23;15.00;99.90
9157;DHT22;4613;48.392;9.998;2023-03-23T18:05:13;15.00;99.90
9157;DHT22;4613;48.392;9.998;2023-03-23T18:08:06;15.00;99.90
9157;DHT22;4613;48.392;9.998;2023-03-23T18:10:57;15.00;99.90
9157;DHT22;4613;48.392;9.998;2023-03-23T18:13:46;15.00;99.90
9157;DHT22;4613;48.392;9.998;2023-03-23T18:16:36;14.90;99.90
9157;DHT22;4613;48.392;9.998;2023-03-23T18:19:25;14.90;99.90
9157;DHT22;4613;48.392;9.998;2023-03-23T18:22:17;14.80;99.90
9157;DHT22;4613;48.392;9.998;2023-03-23T18:25:06;14.80;99.90
9157;DHT22;4613;48.392;9.998;2023-03-23T18:27:56;14.70;99.90
9157;DHT22;4613;48.392;9.998;2023-03-23T18:30:45;14.80;99.90
9157;DHT22;4613;48.392;9.998;2023-03-23T18:33:38;14.70;99.90
9157;DHT22;4613;48.392;9.998;2023-03-23T18:36:30;14.70;99.90
9157;DHT22;4613;48.392;9.998;2023-03-23T18:39:19;14.70;99.90
9157;DHT22;4613;48.392;9.998;2023-03-23T18:42:10;14.70;99.90
9157;DHT22;4613;48.392;9.998;2023-03-23T18:44:59;14.60;99.90
9157;DHT22;4613;48.392;9.998;2023-03-23T18:47:49;14.60;99.90
9157;DHT22;4613;48.392;9.998;2023-03-23T18:50:38;14.60;99.90
9157;DHT22;4613;48.392;9.998;2023-03-23T18:53:28;14.60;99.90
9157;DHT22;4613;48.392;9.998;2023-03-23T18:56:17;14.50;99.90
9157;DHT22;4613;48.392;9.998;2023-03-23T18:59:07;14.40;99.90
9157;DHT22;4613;48.392;9.998;2023-03-23T19:01:57;14.40;99.90
9157;DHT22;4613;48.392;9.998;2023-03-23T19:04:47;14.40;99.90
9157;DHT22;4613;48.392;9.998;2023-03-23T19:07:37;14.50;99.90
9157;DHT22;4613;48.392;9.998;2023-03-23T19:10:26;14.60;99.90
9157;DHT22;4613;48.392;9.998;2023-03-23T19:13:16;14.60;99.90
9157;DHT22;4613;48.392;9.998;2023-03-23T19:16:06;14.40;99.90
9157;DHT22;4613;48.392;9.998;2023-03-23T19:18:56;14.30;99.90
9157;DHT22;4613;48.392;9.998;2023-03-23T19:21:45;14.30;99.90
9157;DHT22;4613;48.392;9.998;2023-03-23T19:24:34;14.40;99.90
9157;DHT22;4613;48.392;9.998;2023-03-23T19:27:24;14.40;99.90
9157;DHT22;4613;48.392;9.998;2023-03-23T19:30:14;14.30;99.90
9157;DHT22;4613;48.392;9.998;2023-03-23T19:33:03;14.20;99.90
9157;DHT22;4613;48.392;9.998;2023-03-23T19:35:53;14.20;99.90
9157;DHT22;4613;48.392;9.998;2023-03-23T19:38:42;14.20;99.90
9157;DHT22;4613;48.392;9.998;2023-03-23T19:41:33;14.20;99.90
9157;DHT22;4613;48.392;9.998;2023-03-23T19:44:22;14.20;99.90
9157;DHT22;4613;48.392;9.998;2023-03-23T19:47:11;14.30;99.90
9157;DHT22;4613;48.392;9.998;2023-03-23T19:50:01;14.10;99.90
9157;DHT22;4613;48.392;9.998;2023-03-23T19:52:51;14.00;99.90
9157;DHT22;4613;48.392;9.998;2023-03-23T19:55:40;14.00;99.90
9157;DHT22;4613;48.392;9.998;2023-03-23T19:58:29;14.00;99.90
9157;DHT22;4613;48.392;9.998;2023-03-23T20:01:18;13.90;99.90
9157;DHT22;4613;48.392;9.998;2023-03-23T20:04:09;13.90;99.90
9157;DHT22;4613;48.392;9.998;2023-03-23T20:06:59;13.90;99.90
9157;DHT22;4613;48.392;9.998;2023-03-23T20:09:49;13.80;99.90
9157;DHT22;4613;48.392;9.998;2023-03-23T20:12:38;13.90;99.90
9157;DHT22;4613;48.392;9.998;2023-03-23T20:15:31;13.80;99.90
9157;DHT22;4613;48.392;9.998;2023-03-23T20:18:22;13.80;99.90
9157;DHT22;4613;48.392;9.998;2023-03-23T20:21:13;13.80;99.90
9157;DHT22;4613;48.392;9.998;2023-03-23T20:24:03;13.90;99.90
9157;DHT22;4613;48.392;9.998;2023-03-23T20:26:52;13.80;99.90
9157;DHT22;4613;48.392;9.998;2023-03-23T20:29:42;13.90;99.90
9157;DHT22;4613;48.392;9.998;2023-03-23T20:32:31;13.80;99.90
9157;DHT22;4613;48.392;9.998;2023-03-23T20:35:21;13.90;99.90
9157;DHT22;4613;48.392;9.998;2023-03-23T20:38:13;13.70;99.90